Rosebud, Canada
Current Conditions -  °F | °C
As of 11:00 AM on Sunday 21 Dec 2014 (Local Time) from CYYC Reporting Station
Broken Clouds Broken Clouds  
Wind Chill: 34°   Ceiling: 21000
Heat Index: 41°   Visibility: 40mi
Dew Point: 21°   Wind: 13mph
Humidity: 45%   Direction: 340°NNW
Pressure: 29.31"   Gusts: NA
Location:  51.3°N, 112.95°W
Report Text: CYYC 211800Z 34011KT 40SM SCT150 BKN210 05/M06 A2931 RMK AC4CI3 SLP962 DENSITY ALT 3900FT
Loading
Personal Weather Stations






























Interactive Weather Map New forecast layout! Learn more

10-Day Weather Forecast

Advertisements
Track Severe Weather on mobile